createdAt,value
2022-08-16T00:02:13.051Z,10.88
2022-08-16T00:04:40.242Z,10.70
2022-08-16T00:07:07.164Z,11.65
2022-08-16T00:09:35.809Z,11.60
2022-08-16T00:12:03.159Z,11.18
2022-08-16T00:14:32.916Z,11.88
2022-08-16T00:17:12.311Z,11.23
2022-08-16T00:19:45.594Z,11.63
2022-08-16T00:22:13.659Z,11.75
2022-08-16T00:27:14.093Z,11.52
2022-08-16T00:29:41.341Z,12.30
2022-08-16T00:32:09.018Z,12.10
2022-08-16T00:34:43.335Z,11.55
2022-08-16T00:37:24.341Z,11.60
2022-08-16T00:39:57.341Z,10.98
2022-08-16T00:42:29.658Z,11.73
2022-08-16T00:45:08.124Z,11.23
2022-08-16T00:47:38.992Z,11.68
2022-08-16T00:50:08.159Z,11.15
2022-08-16T00:52:38.864Z,12.02
2022-08-16T00:55:17.880Z,11.77
2022-08-16T00:57:59.915Z,12.48
2022-08-16T01:00:31.735Z,11.60
2022-08-16T01:03:01.584Z,12.18
2022-08-16T01:05:29.725Z,12.80
2022-08-16T01:07:58.510Z,11.15
2022-08-16T01:10:32.367Z,11.45
2022-08-16T01:13:15.262Z,12.40
2022-08-16T01:15:52.574Z,11.32
2022-08-16T01:18:39.963Z,11.45
2022-08-16T01:21:33.249Z,11.25
2022-08-16T01:24:52.688Z,12.25
2022-08-16T01:27:15.033Z,11.55
2022-08-16T01:29:58.053Z,11.48
2022-08-16T01:32:33.708Z,11.40
2022-08-16T01:35:02.261Z,11.02
2022-08-16T01:37:35.895Z,11.30
2022-08-16T01:40:07.332Z,11.35
2022-08-16T01:42:35.208Z,10.98
2022-08-16T01:45:02.069Z,12.63
2022-08-16T01:47:29.986Z,11.70
2022-08-16T01:50:42.084Z,12.57
2022-08-16T01:52:47.979Z,11.77
2022-08-16T01:55:24.886Z,11.40
2022-08-16T01:57:56.458Z,11.77
2022-08-16T02:00:29.163Z,11.55
2022-08-16T02:02:58.672Z,12.77
2022-08-16T02:05:25.641Z,12.43
2022-08-16T02:07:58.705Z,12.70
2022-08-16T02:10:25.869Z,12.60
2022-08-16T02:13:00.017Z,12.98
2022-08-16T02:15:29.697Z,13.25
2022-08-16T02:18:01.138Z,12.93
2022-08-16T02:20:31.377Z,12.85
2022-08-16T02:22:59.669Z,12.93
2022-08-16T02:25:51.144Z,13.00
2022-08-16T02:28:19.327Z,13.73
2022-08-16T02:30:50.944Z,14.00
2022-08-16T02:33:19.938Z,13.60
2022-08-16T02:35:58.182Z,13.68
2022-08-16T02:38:28.859Z,13.02
2022-08-16T02:41:00.762Z,13.38
2022-08-16T02:43:33.003Z,14.52
2022-08-16T02:46:07.717Z,13.07
2022-08-16T02:48:38.421Z,13.65
2022-08-16T02:51:11.373Z,13.55
2022-08-16T02:53:43.809Z,13.18
2022-08-16T02:56:15.102Z,13.50
2022-08-16T02:58:44.221Z,14.15
2022-08-16T03:01:24.147Z,14.20
2022-08-16T03:04:41.470Z,13.43
2022-08-16T03:06:56.638Z,14.10
2022-08-16T03:09:35.988Z,13.07
2022-08-16T03:12:03.880Z,13.90
2022-08-16T03:14:32.089Z,15.00
2022-08-16T03:17:00.772Z,14.07
2022-08-16T03:19:48.421Z,14.23
2022-08-16T03:22:28.844Z,13.82
2022-08-16T03:25:01.930Z,12.95
2022-08-16T03:27:32.779Z,13.32
2022-08-16T03:30:15.974Z,13.90
2022-08-16T03:32:51.971Z,13.60
2022-08-16T03:35:24.173Z,13.35
2022-08-16T03:38:03.887Z,13.63
2022-08-16T03:40:40.181Z,13.27
2022-08-16T03:43:19.651Z,13.57
2022-08-16T03:45:53.383Z,13.55
2022-08-16T03:48:36.827Z,12.98
2022-08-16T03:51:16.873Z,13.70
2022-08-16T03:54:01.169Z,13.65
2022-08-16T03:56:30.584Z,12.90
2022-08-16T03:58:58.944Z,13.32
2022-08-16T04:01:30.255Z,13.65
2022-08-16T04:03:57.739Z,13.30
2022-08-16T04:06:25.490Z,12.70
2022-08-16T04:08:53.849Z,13.80
2022-08-16T04:11:23.643Z,13.48
2022-08-16T04:13:59.115Z,14.70
2022-08-16T04:16:37.844Z,14.88
2022-08-16T04:19:37.249Z,13.85
2022-08-16T04:22:13.881Z,13.43
2022-08-16T04:24:55.333Z,13.32
2022-08-16T04:27:29.056Z,13.40
2022-08-16T04:30:02.960Z,13.93
2022-08-16T04:32:32.368Z,14.50
2022-08-16T04:35:03.464Z,14.65
2022-08-16T04:37:33.382Z,12.48
2022-08-16T04:40:20.670Z,13.30
2022-08-16T04:42:50.437Z,14.52
2022-08-16T04:45:18.030Z,14.98
2022-08-16T04:48:05.997Z,13.43
2022-08-16T04:50:43.469Z,14.38
2022-08-16T04:53:15.708Z,14.15
2022-08-16T04:55:44.579Z,14.25
2022-08-16T04:58:44.975Z,14.60
2022-08-16T05:01:01.707Z,14.65
2022-08-16T05:03:31.221Z,14.63
2022-08-16T05:06:04.801Z,13.85
2022-08-16T05:08:34.174Z,14.45
2022-08-16T05:11:14.148Z,14.35
2022-08-16T05:13:44.241Z,13.85
2022-08-16T05:16:21.543Z,14.85
2022-08-16T05:18:54.030Z,13.38
2022-08-16T05:21:26.975Z,14.45
2022-08-16T05:24:00.219Z,13.52
2022-08-16T05:26:32.558Z,13.75
2022-08-16T05:29:03.531Z,15.18
2022-08-16T05:31:31.581Z,15.13
2022-08-16T05:34:03.054Z,14.90
2022-08-16T05:36:33.851Z,14.48
2022-08-16T05:39:03.235Z,14.77
2022-08-16T05:41:30.665Z,15.20
2022-08-16T05:44:00.282Z,15.18
2022-08-16T05:46:43.912Z,15.27
2022-08-16T05:49:22.369Z,15.70
2022-08-16T05:51:51.389Z,15.25
2022-08-16T05:54:25.107Z,16.10
2022-08-16T05:56:57.249Z,16.10
2022-08-16T05:59:26.824Z,15.90
2022-08-16T06:01:54.813Z,17.40
2022-08-16T06:04:36.264Z,17.55
2022-08-16T06:07:24.321Z,16.13
2022-08-16T06:09:59.909Z,15.95
2022-08-16T06:12:29.487Z,17.23
2022-08-16T06:15:07.843Z,17.23
2022-08-16T06:20:24.387Z,16.77
2022-08-16T06:22:58.988Z,18.20
2022-08-16T06:25:39.632Z,16.52
2022-08-16T06:28:10.176Z,17.27
2022-08-16T06:30:45.395Z,15.25
2022-08-16T06:33:22.071Z,17.83
2022-08-16T06:35:59.398Z,16.88
2022-08-16T06:38:33.908Z,17.95
2022-08-16T06:41:13.640Z,18.42
2022-08-16T06:43:42.001Z,18.25
2022-08-16T06:46:31.403Z,17.85
2022-08-16T06:49:05.367Z,17.63
2022-08-16T06:51:48.204Z,17.63
2022-08-16T06:54:18.154Z,17.98
2022-08-16T06:56:45.709Z,18.27
2022-08-16T06:59:14.403Z,18.00
2022-08-16T07:01:54.135Z,16.75
2022-08-16T07:04:32.355Z,17.20
2022-08-16T07:07:10.721Z,17.27
2022-08-16T07:09:41.715Z,16.70
2022-08-16T07:12:09.439Z,16.52
2022-08-16T07:14:40.950Z,16.35
2022-08-16T07:17:12.917Z,15.35
2022-08-16T07:20:02.686Z,15.27
2022-08-16T07:22:43.241Z,14.75
2022-08-16T07:25:23.925Z,15.32
2022-08-16T07:27:51.710Z,14.52
2022-08-16T07:30:38.985Z,14.15
2022-08-16T07:33:15.845Z,14.52
2022-08-16T07:35:49.855Z,13.25
2022-08-16T07:38:19.884Z,13.63
2022-08-16T07:41:00.237Z,13.57
2022-08-16T07:43:29.771Z,12.20
2022-08-16T07:46:01.406Z,14.48
2022-08-16T07:48:29.986Z,12.88
2022-08-16T07:50:59.257Z,12.68
2022-08-16T07:53:31.480Z,11.23
2022-08-16T07:58:36.296Z,12.05
2022-08-16T08:01:11.053Z,12.80
2022-08-16T08:03:51.637Z,12.73
2022-08-16T08:06:24.948Z,12.77
2022-08-16T08:08:56.976Z,12.95
2022-08-16T08:11:25.109Z,12.00
2022-08-16T08:14:02.975Z,13.48
2022-08-16T08:16:32.785Z,12.52
2022-08-16T08:19:02.573Z,12.02
2022-08-16T08:21:59.836Z,12.63
2022-08-16T08:24:31.968Z,11.98
2022-08-16T08:27:02.319Z,12.05
2022-08-16T08:29:37.193Z,13.65
2022-08-16T08:32:58.073Z,14.07
2022-08-16T08:35:03.123Z,13.07
2022-08-16T08:37:55.233Z,13.63
2022-08-16T08:40:19.180Z,13.27
2022-08-16T08:42:52.118Z,13.45
2022-08-16T08:45:47.343Z,14.00
2022-08-16T08:48:33.472Z,12.82
2022-08-16T08:50:59.267Z,13.85
2022-08-16T08:53:30.568Z,13.73
2022-08-16T08:55:59.037Z,13.38
2022-08-16T08:58:34.356Z,12.70
2022-08-16T09:01:31.388Z,12.30
2022-08-16T09:04:00.173Z,11.05
2022-08-16T09:06:27.031Z,10.38
2022-08-16T09:08:54.035Z,13.45
2022-08-16T09:11:40.858Z,10.55
2022-08-16T09:14:23.606Z,10.52
2022-08-16T09:17:01.423Z,10.50
2022-08-16T09:19:34.328Z,11.73
2022-08-16T09:22:02.064Z,10.45
2022-08-16T09:24:51.802Z,12.00
2022-08-16T09:27:16.494Z,10.95
2022-08-16T09:29:45.784Z,12.43
2022-08-16T09:32:28.704Z,12.43
2022-08-16T09:34:58.272Z,11.40
2022-08-16T09:37:29.526Z,10.88
2022-08-16T09:40:00.813Z,9.93
2022-08-16T09:42:29.127Z,10.35
2022-08-16T09:45:11.952Z,9.68
2022-08-16T09:47:57.399Z,10.45
2022-08-16T09:50:36.848Z,10.75
2022-08-16T09:55:50.234Z,10.45
2022-08-16T09:58:40.755Z,9.63
2022-08-16T10:01:08.390Z,9.93
2022-08-16T10:03:35.563Z,9.65
2022-08-16T10:06:02.507Z,9.95
2022-08-16T10:08:29.398Z,10.10
2022-08-16T10:11:14.711Z,9.15
2022-08-16T10:13:50.722Z,9.35
2022-08-16T10:16:17.404Z,9.80
2022-08-16T10:19:01.732Z,11.80
2022-08-16T10:21:33.681Z,9.95
2022-08-16T10:24:02.109Z,11.63
2022-08-16T10:27:00.651Z,11.88
2022-08-16T10:29:19.931Z,10.95
2022-08-16T10:31:53.309Z,8.82
2022-08-16T10:34:31.773Z,9.23
2022-08-16T10:37:00.767Z,8.27
2022-08-16T10:39:40.895Z,9.48
2022-08-16T10:42:10.684Z,7.72
2022-08-16T10:44:41.008Z,8.85
2022-08-16T10:47:09.940Z,8.73
2022-08-16T10:49:39.168Z,8.70
2022-08-16T10:52:19.141Z,8.55
2022-08-16T10:57:34.950Z,9.68
2022-08-16T11:00:06.781Z,9.60
2022-08-16T11:02:57.652Z,10.43
2022-08-16T11:05:27.235Z,8.15
2022-08-16T11:07:54.089Z,10.27
2022-08-16T11:17:02.007Z,11.57
2022-08-16T11:19:04.251Z,10.48
2022-08-16T11:21:33.644Z,11.45
2022-08-16T11:24:02.045Z,12.10
2022-08-16T11:26:29.726Z,12.05
2022-08-16T11:29:14.325Z,11.75
2022-08-16T11:31:45.608Z,11.60
2022-08-16T11:34:15.897Z,12.85
2022-08-16T11:36:59.309Z,11.68
2022-08-16T11:39:29.657Z,13.30
2022-08-16T11:41:57.820Z,13.35
2022-08-16T11:44:52.938Z,13.13
2022-08-16T11:47:12.575Z,12.60
2022-08-16T11:49:39.288Z,14.82
2022-08-16T11:52:06.057Z,13.02
2022-08-16T11:54:33.200Z,12.30
2022-08-16T11:57:04.013Z,12.73
2022-08-16T11:59:39.573Z,11.82
2022-08-16T12:02:30.913Z,13.35
2022-08-16T12:04:55.797Z,10.35
2022-08-16T12:07:23.928Z,11.32
2022-08-16T12:09:53.287Z,11.60
2022-08-16T12:12:23.617Z,11.85
2022-08-16T12:14:59.450Z,11.50
2022-08-16T12:17:31.737Z,10.75
2022-08-16T12:20:00.557Z,10.57
2022-08-16T12:22:27.859Z,9.80
2022-08-16T12:24:54.634Z,9.63
2022-08-16T12:27:23.931Z,11.35
2022-08-16T12:29:54.880Z,10.73
2022-08-16T12:35:12.527Z,11.10
2022-08-16T12:37:41.621Z,13.13
2022-08-16T12:40:19.808Z,15.07
2022-08-16T12:42:54.174Z,14.32
2022-08-16T12:45:23.149Z,12.73
2022-08-16T12:48:32.550Z,13.13
2022-08-16T12:50:57.090Z,13.80
2022-08-16T12:53:24.623Z,13.25
2022-08-16T12:55:52.964Z,13.98
2022-08-16T12:58:48.289Z,14.77
2022-08-16T13:01:09.486Z,15.25
2022-08-16T13:03:40.882Z,16.25
2022-08-16T13:06:08.210Z,16.20
2022-08-16T13:08:35.080Z,16.92
2022-08-16T13:11:04.227Z,16.08
2022-08-16T13:13:33.927Z,15.68
2022-08-16T13:16:10.712Z,14.85
2022-08-16T13:18:42.857Z,17.25
2022-08-16T13:21:10.673Z,15.93
2022-08-16T13:23:43.421Z,20.88
2022-08-16T13:26:12.725Z,17.95
2022-08-16T13:28:47.753Z,18.55
2022-08-16T13:31:15.902Z,18.52
2022-08-16T13:33:44.427Z,15.10
2022-08-16T13:36:21.306Z,15.65
2022-08-16T13:38:59.901Z,17.65
2022-08-16T13:41:30.243Z,13.77
2022-08-16T13:44:00.437Z,11.00
2022-08-16T13:46:32.252Z,10.38
2022-08-16T13:48:59.456Z,10.63
2022-08-16T13:51:29.285Z,10.40
2022-08-16T13:54:03.786Z,9.77
2022-08-16T13:59:19.396Z,9.50
2022-08-16T14:01:55.352Z,8.48
2022-08-16T14:04:26.372Z,8.63
2022-08-16T14:06:55.278Z,8.52
2022-08-16T14:09:23.570Z,8.60
2022-08-16T14:11:53.339Z,8.93
2022-08-16T14:14:21.694Z,8.63
2022-08-16T14:16:57.495Z,8.63
2022-08-16T14:19:24.217Z,8.02
2022-08-16T14:22:14.862Z,9.55
2022-08-16T14:24:48.544Z,10.88
2022-08-16T14:27:17.703Z,10.57
2022-08-16T14:29:45.600Z,9.68
2022-08-16T14:32:27.259Z,10.25
2022-08-16T14:35:07.548Z,11.00
2022-08-16T14:37:35.098Z,10.52
2022-08-16T14:40:03.368Z,12.07
2022-08-16T14:42:30.775Z,12.45
2022-08-16T14:44:57.478Z,11.93
2022-08-16T14:47:31.613Z,13.65
2022-08-16T14:50:01.873Z,14.05
2022-08-16T14:52:53.981Z,15.18
2022-08-16T14:55:16.258Z,14.30
2022-08-16T14:57:43.601Z,15.15
2022-08-16T15:00:12.914Z,14.10
2022-08-16T15:02:42.626Z,14.45
2022-08-16T15:05:10.640Z,17.20
2022-08-16T15:07:40.282Z,17.02
2022-08-16T15:10:21.574Z,14.73
2022-08-16T15:12:56.272Z,18.75
2022-08-16T15:15:27.825Z,20.67
2022-08-16T15:17:56.991Z,16.70
2022-08-16T15:20:26.990Z,19.27
2022-08-16T15:22:59.560Z,18.80
2022-08-16T15:25:31.715Z,16.08
2022-08-16T15:28:04.535Z,16.73
2022-08-16T15:30:58.450Z,17.42
2022-08-16T15:35:50.549Z,19.02
2022-08-16T15:38:57.480Z,19.15
2022-08-16T15:41:05.745Z,18.20
2022-08-16T15:43:39.098Z,19.60
2022-08-16T15:46:35.164Z,18.25
2022-08-16T15:49:10.454Z,19.58
2022-08-16T15:51:39.471Z,17.75
2022-08-16T15:54:29.297Z,16.00
2022-08-16T15:56:55.072Z,19.60
2022-08-16T15:59:24.609Z,18.38
2022-08-16T16:01:55.777Z,17.63
2022-08-16T16:04:23.237Z,16.08
2022-08-16T16:06:55.273Z,16.90
2022-08-16T16:09:36.563Z,14.93
2022-08-16T16:12:34.098Z,16.50
2022-08-16T16:14:52.808Z,13.98
2022-08-16T16:17:19.507Z,15.38
2022-08-16T16:19:49.701Z,15.38
2022-08-16T16:22:20.955Z,15.43
2022-08-16T16:24:49.109Z,15.65
2022-08-16T16:27:16.898Z,15.05
2022-08-16T16:29:46.179Z,15.07
2022-08-16T16:32:17.629Z,13.75
2022-08-16T16:34:57.792Z,14.95
2022-08-16T16:37:25.388Z,16.33
2022-08-16T16:39:52.116Z,15.13
2022-08-16T16:42:29.423Z,17.15
2022-08-16T16:45:01.301Z,14.88
2022-08-16T16:47:29.987Z,15.10
2022-08-16T16:50:09.369Z,14.32
2022-08-16T16:52:44.458Z,15.82
2022-08-16T16:55:12.767Z,14.30
2022-08-16T16:57:58.355Z,16.02
2022-08-16T17:00:30.402Z,15.80
2022-08-16T17:03:05.691Z,15.70
2022-08-16T17:05:32.753Z,17.02
2022-08-16T17:08:01.801Z,15.48
2022-08-16T17:10:46.094Z,16.60
2022-08-16T17:13:15.970Z,16.92
2022-08-16T17:15:43.596Z,15.75
2022-08-16T17:19:14.478Z,16.50
2022-08-16T17:26:11.623Z,14.35
2022-08-16T17:29:00.206Z,14.35
2022-08-16T17:31:41.003Z,13.95
2022-08-16T17:34:28.973Z,14.07
2022-08-16T17:37:00.777Z,13.88
2022-08-16T17:39:35.367Z,13.82
2022-08-16T17:42:22.346Z,13.45
2022-08-16T17:44:52.517Z,12.73
2022-08-16T17:47:21.542Z,13.65
2022-08-16T17:49:48.275Z,13.43
2022-08-16T17:52:15.216Z,12.93
2022-08-16T17:54:41.993Z,14.90
2022-08-16T17:57:08.715Z,14.95
2022-08-16T17:59:41.524Z,15.48
2022-08-16T18:02:42.978Z,15.82
2022-08-16T18:04:56.407Z,16.55
2022-08-16T18:07:23.374Z,16.80
2022-08-16T18:09:51.489Z,17.25
2022-08-16T18:12:50.991Z,17.00
2022-08-16T18:15:12.108Z,17.60
2022-08-16T18:17:39.404Z,16.65
2022-08-16T18:20:28.101Z,16.60
2022-08-16T18:22:54.873Z,15.93
2022-08-16T18:25:21.700Z,16.55
2022-08-16T18:27:48.436Z,16.13
2022-08-16T18:30:17.551Z,15.43
2022-08-16T18:32:48.967Z,15.88
2022-08-16T18:35:17.197Z,16.23
2022-08-16T18:37:43.968Z,16.95
2022-08-16T18:40:11.996Z,14.85
2022-08-16T18:42:39.111Z,16.83
2022-08-16T18:45:06.452Z,15.68
2022-08-16T18:47:33.298Z,14.25
2022-08-16T18:50:00.440Z,12.48
2022-08-16T18:52:27.221Z,15.65
2022-08-16T18:55:02.981Z,15.95
2022-08-16T18:57:41.274Z,15.52
2022-08-16T19:00:11.396Z,13.68
2022-08-16T19:02:42.958Z,13.82
2022-08-16T19:05:27.047Z,14.70
2022-08-16T19:07:53.739Z,16.02
2022-08-16T19:10:20.907Z,14.80
2022-08-16T19:12:47.774Z,16.42
2022-08-16T19:15:19.135Z,15.05
2022-08-16T19:17:46.642Z,18.38
2022-08-16T19:20:17.941Z,16.42
2022-08-16T19:23:04.617Z,16.50
2022-08-16T19:25:47.109Z,19.10
2022-08-16T19:28:51.040Z,20.15
2022-08-16T19:31:10.603Z,20.65
2022-08-16T19:33:37.510Z,21.50
2022-08-16T19:36:05.246Z,22.45
2022-08-16T19:38:31.945Z,24.05
2022-08-16T19:40:58.692Z,22.65
2022-08-16T19:43:25.448Z,23.92
2022-08-16T19:45:53.411Z,21.77
2022-08-16T19:48:20.183Z,22.70
2022-08-16T19:50:46.919Z,22.77
2022-08-16T19:53:19.090Z,23.20
2022-08-16T19:55:47.354Z,22.90
2022-08-16T19:58:15.366Z,22.98
2022-08-16T20:00:43.327Z,22.73
2022-08-16T20:03:17.441Z,24.85
2022-08-16T20:05:44.623Z,24.15
2022-08-16T20:08:12.649Z,23.38
2022-08-16T20:10:42.283Z,23.23
2022-08-16T20:13:23.401Z,22.08
2022-08-16T20:18:24.977Z,23.75
2022-08-16T20:23:24.601Z,23.35
2022-08-16T20:25:55.681Z,23.08
2022-08-16T20:28:39.637Z,20.73
2022-08-16T20:31:11.490Z,21.70
2022-08-16T20:33:38.228Z,22.20
2022-08-16T20:36:05.373Z,21.48
2022-08-16T20:38:32.048Z,21.63
2022-08-16T20:40:59.196Z,22.02
2022-08-16T20:43:25.908Z,19.67
2022-08-16T20:45:52.724Z,20.77
2022-08-16T20:48:19.904Z,20.02
2022-08-16T20:50:47.063Z,21.80
2022-08-16T20:53:16.506Z,20.38
2022-08-16T20:55:44.661Z,20.10
2022-08-16T20:58:11.580Z,20.90
2022-08-16T21:00:38.487Z,20.25
2022-08-16T21:03:10.778Z,20.25
2022-08-16T21:05:37.649Z,20.63
2022-08-16T21:08:27.875Z,22.75
2022-08-16T21:13:18.743Z,22.02
2022-08-16T21:15:45.680Z,21.35
2022-08-16T21:18:12.791Z,30.02
2022-08-16T21:20:39.711Z,22.83
2022-08-16T21:23:08.876Z,21.58
2022-08-16T21:25:41.504Z,22.38
2022-08-16T21:28:39.271Z,23.08
2022-08-16T21:31:13.602Z,23.02
2022-08-16T21:33:40.909Z,24.83
2022-08-16T21:36:08.281Z,25.20
2022-08-16T21:38:35.165Z,25.40
2022-08-16T21:41:03.925Z,26.52
2022-08-16T21:43:33.089Z,26.27
2022-08-16T21:46:04.433Z,25.80
2022-08-16T21:48:35.030Z,23.48
2022-08-16T21:51:08.079Z,25.38
2022-08-16T21:53:36.163Z,26.15
2022-08-16T21:56:05.466Z,25.17
2022-08-16T21:58:32.611Z,25.23
2022-08-16T22:01:00.442Z,24.70
2022-08-16T22:03:28.133Z,23.48
2022-08-16T22:06:11.545Z,23.75
2022-08-16T22:08:49.273Z,23.88
2022-08-16T22:11:22.036Z,23.90
2022-08-16T22:13:57.139Z,24.35
2022-08-16T22:16:28.538Z,23.58
2022-08-16T22:18:55.428Z,24.65
2022-08-16T22:21:22.661Z,23.50
2022-08-16T22:23:57.234Z,23.67
2022-08-16T22:26:30.341Z,23.05
2022-08-16T22:29:09.339Z,21.23
2022-08-16T22:31:37.684Z,22.85
2022-08-16T22:34:05.623Z,21.98
2022-08-16T22:36:33.785Z,22.38
2022-08-16T22:39:03.897Z,22.38
2022-08-16T22:41:32.719Z,21.77
2022-08-16T22:44:01.052Z,20.73
2022-08-16T22:46:28.442Z,21.95
2022-08-16T22:48:55.219Z,21.52
2022-08-16T22:51:24.143Z,21.60
2022-08-16T22:56:18.333Z,20.95
2022-08-16T22:58:46.124Z,22.38
2022-08-16T23:01:14.091Z,20.67
2022-08-16T23:03:41.172Z,20.52
2022-08-16T23:06:08.853Z,21.98
2022-08-16T23:08:39.272Z,21.70
2022-08-16T23:11:13.868Z,20.40
2022-08-16T23:13:49.955Z,19.95
2022-08-16T23:16:32.561Z,20.27
2022-08-16T23:19:03.310Z,21.20
2022-08-16T23:21:30.421Z,19.08
2022-08-16T23:23:57.244Z,19.92
2022-08-16T23:26:47.313Z,20.35
2022-08-16T23:29:16.051Z,20.30
2022-08-16T23:31:59.312Z,18.17
2022-08-16T23:34:28.000Z,18.02
2022-08-16T23:36:55.613Z,19.30
2022-08-16T23:39:23.475Z,20.02
2022-08-16T23:41:50.177Z,19.17
2022-08-16T23:44:55.060Z,19.45
2022-08-16T23:47:05.945Z,19.48
2022-08-16T23:50:01.110Z,18.58
2022-08-16T23:52:39.432Z,20.30
2022-08-16T23:55:07.178Z,21.02
2022-08-16T23:57:33.943Z,21.63
